Meteo Giornale » Osservazioni meteo Stati Uniti (USA) » Gaithersburg

ore: 14:56 - Osservazioni Meteo Gaithersburg
Lat. 39° 10' N Lon. 77° 10' W Alt. 165 metri s.l.m.

molto_nuvoloso

32 °C

Molto Nuvoloso

Temp. 24 Ore

23 °C

33 °C

Nord

11.1 Km/h

Dew point 23 °C

Umidità 59 %

Visibilità  10 Km

Il sole sorge alle ore 06:37

Il sole tramonta alle ore 19:39

Data e Ora Cielo e Fenomeni T °C DP °C Um. % Pres. hPa Vis. km Vento km/h
Oggi h: 14:56 molto_nuvoloso Molto Nuvoloso 32 23 59 1016 10 N 11.1
Oggi h: 13:56 sereno Sereno 33 23 55 1016 10 O 13
Oggi h: 12:56 sereno Sereno 31 24 66 1017 10 O 9.3
Oggi h: 11:56 sereno Sereno 31 23 62 1017 10 O/SO 13
Oggi h: 10:56 sereno Sereno 29 23 70 1018 10 O 9.3
Oggi h: 09:56 sereno Sereno 27 23 78 1018 10 N 5.5
Oggi h: 08:56 poco_nuvoloso Poco Nuvoloso 27 23 78 1018 10 O 11.1
Oggi h: 07:56 sereno Sereno 24 24 100 1018 10 N 0
Oggi h: 06:56 foschia Foschia 23 0 21 1018 6 N 0
Oggi h: 05:56 foschia Foschia 23 0 21 1017 10 N 0
Oggi h: 04:56 sereno Sereno 23 0 21 1018 10 N 0
Oggi h: 03:56 sereno Sereno 24 24 100 1018 10 N 0
Oggi h: 02:56 sereno Sereno 24 24 100 1018 10 N 0
Oggi h: 01:56 sereno Sereno 25 25 100 1018 10 N 5.5
Oggi h: 00:56 sereno Sereno 24 24 100 1019 10 SE 7.4
Ieri h: 23:56 nuvoloso Nuvoloso 23 0 21 1019 10 N 0
Ieri h: 22:56 molto_nuvoloso Molto Nuvoloso 23 0 21 1019 10 N 0
Ieri h: 21:56 sereno Sereno 24 24 100 1019 10 SE 7.4
Ieri h: 20:56 sereno Sereno 24 24 100 1019 10 N 0
Ieri h: 19:56 nuvoloso Nuvoloso 26 24 88 1019 10 N 0
Ieri h: 18:56 nuvoloso Nuvoloso 27 24 83 1019 10 N 0
Ieri h: 17:56 sereno Sereno 28 23 74 1019 10 N 0
Ieri h: 16:56 sereno Sereno 28 23 74 1019 10 N 0
Ieri h: 15:56 poco_nuvoloso Poco Nuvoloso 29 22 66 1019 10 N 0